sensor_id;sensor_type;location;lat;lon;timestamp;pressure;altitude;pressure_sealevel;temperature;humidity
69593;BME280;56796;50.122;14.468;2023-04-02T00:08:03;969.48;;;8.93;97.23
69593;BME280;56796;50.122;14.468;2023-04-02T00:27:34;969.61;;;8.91;98.12
69593;BME280;56796;50.122;14.468;2023-04-02T00:46:47;969.66;;;8.79;99.36
69593;BME280;56796;50.122;14.468;2023-04-02T01:06:14;969.79;;;8.78;100
69593;BME280;56796;50.122;14.468;2023-04-02T01:25:40;969.91;;;8.75;100
69593;BME280;56796;50.122;14.468;2023-04-02T01:45:07;970.02;;;8.66;100
69593;BME280;56796;50.122;14.468;2023-04-02T02:04:33;970.2;;;8.57;100
69593;BME280;56796;50.122;14.468;2023-04-02T02:24:00;970.32;;;8.58;100
69593;BME280;56796;50.122;14.468;2023-04-02T02:43:26;970.46;;;8.46;100
69593;BME280;56796;50.122;14.468;2023-04-02T03:02:53;970.66;;;8.43;100
69593;BME280;56796;50.122;14.468;2023-04-02T03:22:20;970.88;;;8.16;100
69593;BME280;56796;50.122;14.468;2023-04-02T03:41:45;971.11;;;7.95;100
69593;BME280;56796;50.122;14.468;2023-04-02T04:01:09;971.43;;;7.73;100
69593;BME280;56796;50.122;14.468;2023-04-02T04:20:39;971.77;;;7.13;100
69593;BME280;56796;50.122;14.468;2023-04-02T04:39:55;972.2;;;6.5;100
69593;BME280;56796;50.122;14.468;2023-04-02T04:59:20;972.6;;;5.92;100
69593;BME280;56796;50.122;14.468;2023-04-02T05:18:43;972.97;;;5.67;100
69593;BME280;56796;50.122;14.468;2023-04-02T05:38:12;973.38;;;5.29;100
69593;BME280;56796;50.122;14.468;2023-04-02T05:57:35;973.81;;;5.16;100
69593;BME280;56796;50.122;14.468;2023-04-02T06:16:59;974.16;;;4.78;100
69593;BME280;56796;50.122;14.468;2023-04-02T06:36:25;974.59;;;4.71;100
69593;BME280;56796;50.122;14.468;2023-04-02T06:55:52;975.03;;;4.8;100
69593;BME280;56796;50.122;14.468;2023-04-02T07:15:17;975.46;;;4.82;100
69593;BME280;56796;50.122;14.468;2023-04-02T07:34:42;975.94;;;4.86;98.27
69593;BME280;56796;50.122;14.468;2023-04-02T07:54:09;976.27;;;4.96;96.77
69593;BME280;56796;50.122;14.468;2023-04-02T08:13:35;976.7;;;5.7;93.59
69593;BME280;56796;50.122;14.468;2023-04-02T08:33:06;977.07;;;5.48;91.05
69593;BME280;56796;50.122;14.468;2023-04-02T08:52:27;977.36;;;6.06;87.8
69593;BME280;56796;50.122;14.468;2023-04-02T09:12:01;977.59;;;7.94;81.28
69593;BME280;56796;50.122;14.468;2023-04-02T09:31:28;977.93;;;8.22;77.83
69593;BME280;56796;50.122;14.468;2023-04-02T09:51:02;978.5;;;6.24;79.61
69593;BME280;56796;50.122;14.468;2023-04-02T10:29:40;979.15;;;5.97;80.62
69593;BME280;56796;50.122;14.468;2023-04-02T10:49:02;979.41;;;6.08;81.76
69593;BME280;56796;50.122;14.468;2023-04-02T11:08:25;979.72;;;5.63;81.13
69593;BME280;56796;50.122;14.468;2023-04-02T11:27:53;980.09;;;5.14;83.07
69593;BME280;56796;50.122;14.468;2023-04-02T11:47:13;980.4;;;5.13;83.39
69593;BME280;56796;50.122;14.468;2023-04-02T12:06:39;980.76;;;4.8;85.71
69593;BME280;56796;50.122;14.468;2023-04-02T12:26:00;981.02;;;4.71;86.59
69593;BME280;56796;50.122;14.468;2023-04-02T12:45:26;981.33;;;4.21;87.61
69593;BME280;56796;50.122;14.468;2023-04-02T13:04:51;981.54;;;4.46;87.08
69593;BME280;56796;50.122;14.468;2023-04-02T13:24:20;981.77;;;4.08;87.4
69593;BME280;56796;50.122;14.468;2023-04-02T13:43:36;981.87;;;4.35;85.34
69593;BME280;56796;50.122;14.468;2023-04-02T14:03:04;982.21;;;4.39;84.08
69593;BME280;56796;50.122;14.468;2023-04-02T14:22:34;982.34;;;4.31;84.97
69593;BME280;56796;50.122;14.468;2023-04-02T14:41:49;982.66;;;4.12;86.19
69593;BME280;56796;50.122;14.468;2023-04-02T15:01:15;982.76;;;3.83;86.2
69593;BME280;56796;50.122;14.468;2023-04-02T15:20:42;982.96;;;4.1;84.93
69593;BME280;56796;50.122;14.468;2023-04-02T15:40:06;983.2;;;3.83;85.55
69593;BME280;56796;50.122;14.468;2023-04-02T15:59:36;983.46;;;3.87;83.16
69593;BME280;56796;50.122;14.468;2023-04-02T16:18:58;983.71;;;3.99;82.88
69593;BME280;56796;50.122;14.468;2023-04-02T16:38:28;983.95;;;3.99;82.42
69593;BME280;56796;50.122;14.468;2023-04-02T16:57:52;984.14;;;3.93;82.33
69593;BME280;56796;50.122;14.468;2023-04-02T17:17:19;984.32;;;3.92;82.94
69593;BME280;56796;50.122;14.468;2023-04-02T17:36:38;984.49;;;3.82;84.01
69593;BME280;56796;50.122;14.468;2023-04-02T17:56:05;984.8;;;3.83;84.6
69593;BME280;56796;50.122;14.468;2023-04-02T18:34:57;985.32;;;3.79;85.71
69593;BME280;56796;50.122;14.468;2023-04-02T18:54:21;985.55;;;3.8;85.82
69593;BME280;56796;50.122;14.468;2023-04-02T19:13:46;985.67;;;3.72;86.49
69593;BME280;56796;50.122;14.468;2023-04-02T19:33:14;985.86;;;3.7;86.94
69593;BME280;56796;50.122;14.468;2023-04-02T19:52:36;985.9;;;3.65;87.62
69593;BME280;56796;50.122;14.468;2023-04-02T20:12:03;986.1;;;3.51;88
69593;BME280;56796;50.122;14.468;2023-04-02T20:31:28;986.18;;;3.42;88.5
69593;BME280;56796;50.122;14.468;2023-04-02T20:50:54;986.38;;;3.36;88.7
69593;BME280;56796;50.122;14.468;2023-04-02T21:10:20;986.5;;;3.33;89.01
69593;BME280;56796;50.122;14.468;2023-04-02T21:29:46;986.51;;;3.33;88.6
69593;BME280;56796;50.122;14.468;2023-04-02T21:49:12;986.66;;;3.36;88.16
69593;BME280;56796;50.122;14.468;2023-04-02T22:08:38;986.74;;;3.36;88.4
69593;BME280;56796;50.122;14.468;2023-04-02T22:28:03;986.76;;;3.4;88.41
69593;BME280;56796;50.122;14.468;2023-04-02T22:47:29;986.84;;;3.4;88.08
69593;BME280;56796;50.122;14.468;2023-04-02T23:06:56;986.89;;;3.39;87.99
69593;BME280;56796;50.122;14.468;2023-04-02T23:26:23;986.88;;;3.44;87.71
69593;BME280;56796;50.122;14.468;2023-04-02T23:45:48;986.85;;;3.38;86.96
